Home PIREPS Pireps

Flight BEL413

  • Submitted By: Marc Toussaint
  • Departure Airport: Bruxelles National (EBBR)
  • Arrival Airport: Luxembourg / Luxembourg (ELLX)
  • Aircraft: DHC-8 402 (G-ECOI)
  • Flight Time: 00.55
  • Date Submitted: 07/04/2016
  • Route: EBBR-ELLX
  • Status: Accepted
Flight Details
Gross Revenue:
(60 load / € 0.00 per unit
€ 0.00
Fuel Cost:
(-988 fuel used @ 0 / unit)
€ 0.00

Additional Log Information:

View Log

Aircraft Used in flight is Biman Bangladesh Q400
18:16 Brakes are On
18:19 Landing Gear Up @ 8 Knots and 190 Feet
18:21 Brakes are Released
18:24 Brakes are On
18:25 Brakes are Released
18:26 You Took off @ 12 Knots and Flaps at Position 0
Departure Weather
EBBR 071550Z 24016KT 9999 FEW039CB BKN046 10/02 Q1009 NOSIGrn
18:26 You Landed @ 11 Knots and with 0 Vertical Speed
Arrival Weather
ELLX 071550Z 26019KT 9999 SCT035CB BKN045 07/M00 Q1011 TEMPO SHRA BKN015CBrn
18:27 In Air Refuel Suspected
18:28 Landing Gear Up @ 139 Knots and 410 Feet
18:31 Above FL100 you need to switch of the landing lights
19:05 Landing Gear Down @ 209 Knots and 1990 Feet
19:10 Brakes are On
19:11 Paused
19:11 Brussels Bel-Track1.0.1.2

Route Map

Corporate About Us Our Team Vacancies Information Fleet Route Network Rules and Regulations Operations Flight Schedules Event Center Tours Partners IVAO Vatsim Acars dev FSCB

fb Users Online Belgium Glenn Sonck,
1 Pilot(s) and 131 Guest(s) Online
CMS by phpVMS - Design by Crazycreatives.com - Copyright © 2018 - Brussels Airlines Virtual